Time;durP1;ratioP1;P1;durP2;ratioP2;P2;SDS_P1;SDS_P2;PMS_P1;PMS_P2;Temp;Humidity;BMP_temperature;BMP_pressure;BME280_temperature;BME280_humidity;BME280_pressure;Samples;Min_cycle;Max_cycle;Signal;HPM_P1;HPM_P2
2023/04/28 00:01:07;;;;;;;15.90;10.63;;;;;;;8.39;100.00;101161.06;5257430;28;20125;-67
2023/04/28 00:03:39;;;;;;;17.33;10.80;;;;;;;8.26;100.00;101160.97;5259592;28;20399;-67
2023/04/28 00:06:10;;;;;;;15.40;10.23;;;;;;;8.32;100.00;101162.41;5259103;28;20490;-67
2023/04/28 00:08:42;;;;;;;18.80;11.45;;;;;;;8.28;100.00;101164.38;5266620;28;20035;-68
2023/04/28 00:11:13;;;;;;;15.88;10.32;;;;;;;8.19;100.00;101157.00;5258716;28;20491;-67
2023/04/28 00:13:44;;;;;;;17.00;11.10;;;;;;;8.20;100.00;101153.38;5259650;28;20025;-67
2023/04/28 00:16:16;;;;;;;17.73;12.27;;;;;;;8.18;100.00;101153.47;5255788;28;20668;-67
2023/04/28 00:18:47;;;;;;;16.63;11.48;;;;;;;8.18;100.00;101147.31;5262775;28;20471;-67
2023/04/28 00:21:19;;;;;;;18.17;13.48;;;;;;;8.20;100.00;101148.91;5260889;28;20033;-66
2023/04/28 00:23:50;;;;;;;17.63;12.70;;;;;;;8.07;100.00;101134.66;5261776;28;20032;-66
2023/04/28 00:26:21;;;;;;;18.63;13.15;;;;;;;8.05;100.00;101145.41;5268888;28;20049;-66
2023/04/28 00:28:53;;;;;;;20.77;13.68;;;;;;;8.08;100.00;101149.69;5266060;28;21394;-67
2023/04/28 00:31:24;;;;;;;21.67;13.65;;;;;;;8.04;100.00;101154.31;5257219;28;20028;-66
2023/04/28 00:33:56;;;;;;;18.83;13.90;;;;;;;7.96;100.00;101130.03;5267335;28;20120;-66
2023/04/28 00:36:30;;;;;;;18.42;13.05;;;;;;;8.00;100.00;101123.56;5261145;28;20025;-66
2023/04/28 00:39:02;;;;;;;18.48;12.30;;;;;;;7.88;100.00;101116.38;5260383;28;20127;-66
2023/04/28 00:41:34;;;;;;;19.95;14.02;;;;;;;7.84;100.00;101112.16;5263223;28;21419;-67
2023/04/28 00:44:05;;;;;;;20.05;13.35;;;;;;;7.81;100.00;101105.25;5263551;28;20283;-67
2023/04/28 00:46:36;;;;;;;22.33;14.68;;;;;;;7.75;100.00;101102.13;5262894;28;20036;-69
2023/04/28 00:49:08;;;;;;;20.70;14.13;;;;;;;7.64;100.00;101119.53;5269766;28;20028;-69
2023/04/28 00:51:40;;;;;;;20.17;12.95;;;;;;;7.54;100.00;101105.09;5263234;28;20107;-69
2023/04/28 00:54:14;;;;;;;20.92;14.63;;;;;;;7.50;100.00;101100.94;5260791;28;20040;-69
2023/04/28 00:56:46;;;;;;;21.73;13.82;;;;;;;7.54;100.00;101099.78;5264486;28;20028;-69
2023/04/28 00:59:17;;;;;;;21.70;14.82;;;;;;;7.43;100.00;101088.97;5272655;28;20032;-69
2023/04/28 01:01:49;;;;;;;22.73;14.25;;;;;;;7.33;100.00;101093.97;5272736;28;20028;-69
2023/04/28 01:04:22;;;;;;;20.52;13.82;;;;;;;7.34;100.00;101098.31;5266266;28;20048;-69
2023/04/28 01:06:54;;;;;;;22.52;15.40;;;;;;;7.33;100.00;101103.72;5270423;28;20029;-69
2023/04/28 01:09:26;;;;;;;21.48;13.73;;;;;;;7.30;100.00;101093.28;5268941;28;20092;-69
2023/04/28 01:11:57;;;;;;;21.73;14.50;;;;;;;7.25;100.00;101097.06;5271619;28;20032;-69
2023/04/28 01:14:29;;;;;;;21.05;13.15;;;;;;;7.26;100.00;101096.09;5270281;28;20549;-69
2023/04/28 01:17:00;;;;;;;20.73;13.98;;;;;;;7.22;100.00;101097.22;5271492;28;20111;-69
2023/04/28 01:19:32;;;;;;;22.27;14.75;;;;;;;7.19;100.00;101078.84;5270244;28;20773;-69
2023/04/28 01:22:03;;;;;;;22.63;15.07;;;;;;;7.23;100.00;101072.41;5276540;28;20070;-70
2023/04/28 01:24:35;;;;;;;24.20;14.15;;;;;;;7.16;100.00;101064.91;5272143;28;20037;-68
2023/04/28 01:27:06;;;;;;;22.95;15.57;;;;;;;7.17;100.00;101064.81;5273424;28;20032;-69
2023/04/28 01:29:37;;;;;;;20.50;14.70;;;;;;;7.17;100.00;101067.47;5272026;28;20047;-68
2023/04/28 01:32:09;;;;;;;24.55;15.07;;;;;;;7.11;100.00;101064.31;5272055;28;20459;-69
2023/04/28 01:34:40;;;;;;;23.33;15.32;;;;;;;7.13;100.00;101068.56;5264910;28;20170;-68
2023/04/28 01:37:12;;;;;;;23.67;15.15;;;;;;;7.11;100.00;101067.81;5262047;28;20147;-69
2023/04/28 01:39:43;;;;;;;23.08;14.63;;;;;;;7.16;100.00;101060.44;5269775;28;20024;-68
2023/04/28 01:42:14;;;;;;;20.70;14.30;;;;;;;7.13;100.00;101060.63;5271353;28;20119;-68
2023/04/28 01:44:46;;;;;;;24.10;15.75;;;;;;;7.15;100.00;101053.44;5272225;28;20036;-67
2023/04/28 01:47:17;;;;;;;23.48;14.65;;;;;;;7.12;100.00;101053.63;5261302;28;20463;-68
2023/04/28 01:49:49;;;;;;;23.30;15.00;;;;;;;7.10;100.00;101059.97;5266010;28;20036;-69
2023/04/28 01:52:23;;;;;;;21.02;14.98;;;;;;;7.14;100.00;101057.03;5270535;28;20040;-68
2023/04/28 01:54:54;;;;;;;24.20;14.77;;;;;;;7.09;100.00;101045.81;5264400;28;20063;-69
2023/04/28 01:57:28;;;;;;;23.70;15.05;;;;;;;7.23;100.00;101045.88;5265113;28;20028;-68
2023/04/28 01:59:59;;;;;;;21.02;14.80;;;;;;;7.14;100.00;101043.75;5267869;28;20031;-69
2023/04/28 02:02:30;;;;;;;21.08;15.38;;;;;;;7.09;100.00;101043.16;5274809;27;20576;-68
2023/04/28 02:05:02;;;;;;;22.02;14.55;;;;;;;7.06;100.00;101044.22;5310404;27;20086;-68
2023/04/28 02:07:33;;;;;;;23.98;15.48;;;;;;;7.14;100.00;101048.22;5313076;27;20024;-68
2023/04/28 02:10:06;;;;;;;22.85;15.13;;;;;;;7.12;100.00;101050.97;5310695;27;20054;-68
2023/04/28 02:12:38;;;;;;;22.83;15.07;;;;;;;7.14;100.00;101054.38;5307688;27;20038;-69
2023/04/28 02:15:09;;;;;;;20.38;14.75;;;;;;;7.20;100.00;101046.06;5308005;27;20027;-68
2023/04/28 02:17:41;;;;;;;24.38;16.17;;;;;;;7.17;100.00;101040.94;5314125;27;20509;-69
2023/04/28 02:20:13;;;;;;;27.70;16.63;;;;;;;7.18;100.00;101036.47;5313450;27;20034;-69
2023/04/28 02:22:44;;;;;;;23.77;16.55;;;;;;;7.32;100.00;101033.00;5318280;27;20049;-69
2023/04/28 02:25:16;;;;;;;25.73;16.30;;;;;;;7.31;100.00;101026.00;5308201;27;20456;-68
2023/04/28 02:27:47;;;;;;;27.10;16.20;;;;;;;7.31;100.00;101016.22;5312044;27;20035;-69
2023/04/28 02:30:19;;;;;;;23.08;16.58;;;;;;;7.31;100.00;101018.03;5308757;27;20028;-68
2023/04/28 02:32:50;;;;;;;24.25;16.30;;;;;;;7.28;100.00;101005.78;5311316;27;20027;-68
2023/04/28 02:35:22;;;;;;;26.98;16.85;;;;;;;7.30;100.00;100979.16;5310360;27;20024;-68
2023/04/28 02:37:53;;;;;;;22.98;16.85;;;;;;;7.34;100.00;100972.72;5316895;27;20071;-68
2023/04/28 02:40:24;;;;;;;24.50;16.23;;;;;;;7.26;100.00;100955.44;5310771;27;20034;-69
2023/04/28 02:42:56;;;;;;;25.10;16.00;;;;;;;7.31;100.00;100957.00;5312454;27;20704;-68
2023/04/28 02:45:27;;;;;;;23.20;15.82;;;;;;;7.30;100.00;100947.31;5308607;27;20067;-69
2023/04/28 02:48:02;;;;;;;24.17;16.02;;;;;;;7.30;100.00;100944.66;5315296;27;20408;-68
2023/04/28 02:50:33;;;;;;;23.13;15.57;;;;;;;7.25;100.00;100924.56;5314450;27;20516;-68
2023/04/28 02:53:05;;;;;;;25.58;16.67;;;;;;;7.41;100.00;100931.59;5313024;27;20027;-68
2023/04/28 02:55:36;;;;;;;27.75;17.92;;;;;;;7.31;100.00;100946.38;5307304;27;20031;-69
2023/04/28 02:58:08;;;;;;;27.13;17.40;;;;;;;7.44;100.00;100957.91;5312983;27;20324;-68
2023/04/28 03:00:39;;;;;;;22.95;16.70;;;;;;;7.32;100.00;100937.44;5308084;27;20028;-69
2023/04/28 03:03:11;;;;;;;24.95;17.05;;;;;;;7.46;100.00;100951.59;5310801;27;20044;-69
2023/04/28 03:05:42;;;;;;;24.30;16.95;;;;;;;7.42;100.00;100954.50;5309873;27;20439;-68
2023/04/28 03:08:14;;;;;;;26.60;18.58;;;;;;;7.44;100.00;100945.53;5311314;27;20038;-69
2023/04/28 03:10:45;;;;;;;24.83;16.27;;;;;;;7.43;100.00;100948.25;5305729;27;20027;-69
2023/04/28 03:13:16;;;;;;;24.73;17.55;;;;;;;7.44;100.00;100945.53;5307977;27;20492;-68
2023/04/28 03:15:48;;;;;;;27.65;18.27;;;;;;;7.44;100.00;100945.53;5304000;27;20043;-68
2023/04/28 03:18:21;;;;;;;27.25;17.85;;;;;;;7.52;100.00;100950.34;5309615;27;20044;-68
2023/04/28 03:20:52;;;;;;;24.60;17.08;;;;;;;7.54;100.00;100942.31;5314453;27;20445;-68
2023/04/28 03:23:23;;;;;;;25.15;17.33;;;;;;;7.51;100.00;100945.13;5313549;27;20049;-68
2023/04/28 03:25:55;;;;;;;27.75;18.48;;;;;;;7.54;100.00;100950.25;5310092;28;20062;-68
2023/04/28 03:28:26;;;;;;;26.40;17.67;;;;;;;7.52;100.00;100954.81;5314270;27;20035;-68
2023/04/28 03:30:58;;;;;;;27.85;19.58;;;;;;;7.57;100.00;100950.06;5304288;27;20032;-68
2023/04/28 03:33:29;;;;;;;27.48;18.92;;;;;;;7.56;100.00;100956.34;5307521;27;20409;-68
2023/04/28 03:36:01;;;;;;;26.13;17.48;;;;;;;7.71;100.00;100941.22;5305056;27;20048;-68
2023/04/28 03:38:32;;;;;;;25.13;17.55;;;;;;;7.61;100.00;100939.16;5307814;27;20626;-68
2023/04/28 03:41:04;;;;;;;24.25;16.50;;;;;;;7.70;100.00;100931.56;5306972;27;20116;-68
2023/04/28 03:43:36;;;;;;;26.10;17.38;;;;;;;7.72;100.00;100929.66;5311482;27;20020;-68
2023/04/28 03:46:07;;;;;;;27.73;18.30;;;;;;;7.68;100.00;100933.47;5303308;27;20510;-68
2023/04/28 03:48:39;;;;;;;25.70;17.33;;;;;;;7.74;100.00;100933.91;5308738;27;20034;-68
2023/04/28 03:51:10;;;;;;;26.02;16.77;;;;;;;7.75;100.00;100926.81;5301488;27;20492;-68
2023/04/28 03:53:42;;;;;;;24.35;17.42;;;;;;;7.87;100.00;100928.69;5308490;28;20031;-68
2023/04/28 03:56:13;;;;;;;24.30;16.48;;;;;;;7.79;100.00;100915.91;5305731;27;20028;-68
2023/04/28 03:58:45;;;;;;;26.48;17.70;;;;;;;7.81;100.00;100923.78;5314067;27;20035;-67
2023/04/28 04:01:16;;;;;;;22.60;17.20;;;;;;;7.81;100.00;100913.16;5301823;27;20031;-68
2023/04/28 04:03:47;;;;;;;24.73;18.08;;;;;;;7.84;100.00;100912.94;5277495;28;20399;-67
2023/04/28 04:06:20;;;;;;;26.02;17.92;;;;;;;7.86;100.00;100916.34;5256928;28;20029;-68
2023/04/28 04:08:51;;;;;;;29.40;19.08;;;;;;;7.82;100.00;100914.84;5267335;28;20029;-68
2023/04/28 04:11:23;;;;;;;25.05;18.10;;;;;;;7.83;100.00;100913.91;5263649;28;20031;-68
2023/04/28 04:13:54;;;;;;;25.80;17.90;;;;;;;7.83;100.00;100911.25;5263804;28;20031;-68
2023/04/28 04:16:26;;;;;;;24.95;16.90;;;;;;;7.85;100.00;100906.69;5262462;28;20474;-68
2023/04/28 04:18:57;;;;;;;25.48;17.80;;;;;;;7.85;100.00;100912.00;5264363;28;20032;-68
2023/04/28 04:21:29;;;;;;;27.15;18.50;;;;;;;8.01;100.00;100915.34;5266672;28;20070;-67
2023/04/28 04:24:00;;;;;;;24.40;17.75;;;;;;;7.96;100.00;100922.78;5267805;28;20036;-68
2023/04/28 04:26:31;;;;;;;27.90;17.42;;;;;;;7.95;100.00;100915.75;5268143;28;20032;-68
2023/04/28 04:29:03;;;;;;;25.05;17.80;;;;;;;8.01;100.00;100925.13;5257813;28;20029;-68
2023/04/28 04:31:34;;;;;;;27.40;18.67;;;;;;;8.10;100.00;100916.56;5260668;28;20040;-67
2023/04/28 04:34:06;;;;;;;25.63;17.95;;;;;;;8.04;100.00;100915.16;5266818;28;20029;-67
2023/04/28 04:36:37;;;;;;;26.15;18.75;;;;;;;8.11;100.00;100910.31;5262298;28;20453;-68
2023/04/28 04:39:08;;;;;;;28.40;18.08;;;;;;;8.09;100.00;100903.38;5263768;28;20040;-68
2023/04/28 04:41:41;;;;;;;26.10;17.00;;;;;;;8.13;100.00;100887.16;5265377;28;20028;-68
2023/04/28 04:44:12;;;;;;;23.02;17.90;;;;;;;8.15;100.00;100885.25;5261796;28;20493;-68
2023/04/28 04:46:44;;;;;;;28.17;19.00;;;;;;;8.10;100.00;100881.19;5265601;28;20036;-68
2023/04/28 04:49:16;;;;;;;26.95;17.20;;;;;;;8.11;100.00;100869.59;5263173;28;20032;-68
2023/04/28 04:51:48;;;;;;;26.75;18.17;;;;;;;8.13;100.00;100870.34;5264129;28;20020;-68
2023/04/28 04:54:19;;;;;;;23.67;16.67;;;;;;;8.17;100.00;100863.84;5264562;28;20039;-68
2023/04/28 04:56:51;;;;;;;25.38;18.02;;;;;;;8.19;100.00;100868.13;5257104;28;20033;-69
2023/04/28 04:59:22;;;;;;;24.73;17.55;;;;;;;8.20;100.00;100875.13;5262856;28;20052;-68
2023/04/28 05:01:54;;;;;;;27.38;18.17;;;;;;;8.27;100.00;100880.09;5261532;28;20049;-68
2023/04/28 05:04:25;;;;;;;26.42;18.17;;;;;;;8.23;100.00;100872.28;5263177;28;20040;-68
2023/04/28 05:06:56;;;;;;;28.15;18.90;;;;;;;8.29;100.00;100876.34;5264191;28;20086;-68
2023/04/28 05:09:29;;;;;;;24.13;17.48;;;;;;;8.38;100.00;100875.75;5269163;28;20072;-68
2023/04/28 05:12:01;;;;;;;23.90;17.73;;;;;;;8.35;100.00;100869.78;5290173;28;20390;-68
2023/04/28 05:14:32;;;;;;;25.75;18.27;;;;;;;8.42;100.00;100868.44;5257343;28;20024;-68
2023/04/28 05:17:03;;;;;;;25.60;17.60;;;;;;;8.48;100.00;100870.69;5262870;28;20175;-68
2023/04/28 05:19:35;;;;;;;25.85;18.15;;;;;;;8.46;100.00;100869.94;5253360;28;20032;-68
2023/04/28 05:22:06;;;;;;;24.15;17.73;;;;;;;8.47;100.00;100874.28;5267694;28;20162;-68
2023/04/28 05:24:38;;;;;;;27.55;18.10;;;;;;;8.52;100.00;100874.00;5263249;28;20554;-67
2023/04/28 05:27:09;;;;;;;23.08;18.13;;;;;;;8.64;100.00;100870.50;5255630;28;20036;-69
2023/04/28 05:29:41;;;;;;;24.50;17.55;;;;;;;8.59;100.00;100876.13;5262956;28;20036;-68
2023/04/28 05:32:12;;;;;;;24.20;17.65;;;;;;;8.61;100.00;100878.66;5268632;28;20045;-68
2023/04/28 05:34:43;;;;;;;27.15;18.00;;;;;;;8.68;100.00;100872.00;5265967;28;20028;-68
2023/04/28 05:37:15;;;;;;;25.48;17.90;;;;;;;8.72;100.00;100872.63;5272900;28;20126;-68
2023/04/28 05:39:46;;;;;;;26.33;17.85;;;;;;;8.77;100.00;100881.16;5269700;28;20036;-68
2023/04/28 05:42:17;;;;;;;28.60;18.25;;;;;;;8.75;100.00;100878.59;5266910;28;20469;-68
2023/04/28 05:44:49;;;;;;;27.10;18.52;;;;;;;8.83;100.00;100872.75;5258076;28;20040;-68
2023/04/28 05:47:20;;;;;;;25.13;17.58;;;;;;;8.92;100.00;100873.94;5261368;28;20442;-67
2023/04/28 05:49:52;;;;;;;25.23;17.70;;;;;;;8.91;100.00;100878.38;5255845;28;20931;-67
2023/04/28 05:52:23;;;;;;;23.88;17.63;;;;;;;8.99;100.00;100872.53;5269849;28;20074;-67
2023/04/28 05:54:55;;;;;;;27.30;18.15;;;;;;;9.01;100.00;100870.63;5266544;28;20027;-68
2023/04/28 05:57:26;;;;;;;24.63;17.45;;;;;;;9.16;100.00;100866.88;5269487;28;20553;-68
2023/04/28 05:59:57;;;;;;;23.30;17.85;;;;;;;9.18;100.00;100859.63;5264506;28;20120;-67
2023/04/28 06:02:29;;;;;;;26.25;17.75;;;;;;;9.22;100.00;100863.81;5265278;28;20111;-66
2023/04/28 06:05:00;;;;;;;25.23;17.75;;;;;;;9.22;100.00;100861.16;5269247;28;20075;-68
2023/04/28 06:07:32;;;;;;;26.30;18.95;;;;;;;9.31;100.00;100858.78;5269417;28;20463;-67
2023/04/28 06:10:04;;;;;;;23.73;17.80;;;;;;;9.35;100.00;100868.25;5266667;28;20033;-68
2023/04/28 06:12:36;;;;;;;26.67;17.65;;;;;;;9.40;100.00;100868.78;5265315;28;20024;-68
2023/04/28 06:15:07;;;;;;;26.60;18.23;;;;;;;9.51;100.00;100860.88;5261708;28;21735;-67
2023/04/28 06:17:39;;;;;;;23.25;17.20;;;;;;;9.53;100.00;100861.63;5258921;28;20036;-68
2023/04/28 06:20:12;;;;;;;24.85;18.77;;;;;;;9.56;100.00;100869.38;5258748;28;20043;-68
2023/04/28 06:22:44;;;;;;;24.77;17.48;;;;;;;9.61;100.00;100867.25;5257687;28;20028;-67
2023/04/28 06:25:15;;;;;;;21.90;17.40;;;;;;;9.66;100.00;100869.56;5251909;28;20414;-67
2023/04/28 06:27:46;;;;;;;25.45;18.17;;;;;;;9.75;100.00;100862.72;5251515;28;20074;-67
2023/04/28 06:30:20;;;;;;;24.80;17.83;;;;;;;9.78;100.00;100868.69;5254509;28;20040;-67
2023/04/28 06:32:51;;;;;;;27.85;17.88;;;;;;;9.79;100.00;100859.72;5251599;28;20392;-67
2023/04/28 06:35:22;;;;;;;24.02;17.38;;;;;;;9.89;100.00;100873.22;5264396;28;20025;-67
2023/04/28 06:37:54;;;;;;;30.00;18.85;;;;;;;9.97;100.00;100870.00;5262098;28;20147;-67
2023/04/28 06:40:25;;;;;;;26.55;17.00;;;;;;;10.02;100.00;100870.50;5259191;28;20048;-67
2023/04/28 06:42:57;;;;;;;20.92;15.77;;;;;;;10.04;100.00;100873.91;5257813;28;20032;-67
2023/04/28 06:45:28;;;;;;;21.95;16.40;;;;;;;10.02;100.00;100870.50;5251876;28;20033;-67
2023/04/28 06:48:00;;;;;;;25.20;17.05;;;;;;;10.08;100.00;100869.22;5254865;28;20072;-67
2023/04/28 06:50:31;;;;;;;21.88;16.65;;;;;;;10.10;100.00;100867.28;5255537;28;20037;-68
2023/04/28 06:53:02;;;;;;;21.02;16.63;;;;;;;10.12;100.00;100866.19;5257409;28;20028;-67
2023/04/28 06:55:34;;;;;;;24.13;16.98;;;;;;;10.21;100.00;100859.34;5257226;28;20461;-67
2023/04/28 06:58:05;;;;;;;26.33;17.80;;;;;;;10.21;100.00;100862.84;5256556;28;20029;-67
2023/04/28 07:00:37;;;;;;;22.45;16.90;;;;;;;10.25;100.00;100860.81;5257207;28;20040;-67
2023/04/28 07:03:08;;;;;;;25.02;17.95;;;;;;;10.34;100.00;100862.81;5280848;28;20039;-68
2023/04/28 07:05:39;;;;;;;23.08;17.60;;;;;;;10.36;100.00;100863.53;5301148;27;20482;-68
2023/04/28 07:08:11;;;;;;;23.13;18.27;;;;;;;10.48;100.00;100858.25;5305723;27;20664;-69
2023/04/28 07:10:42;;;;;;;25.70;18.42;;;;;;;10.55;100.00;100856.84;5321933;27;20022;-68
2023/04/28 07:13:14;;;;;;;25.58;17.85;;;;;;;10.61;100.00;100863.53;5312277;27;20503;-68
2023/04/28 07:15:45;;;;;;;23.52;17.83;;;;;;;10.64;100.00;100856.09;5313802;27;20023;-67
2023/04/28 07:18:16;;;;;;;24.88;18.15;;;;;;;10.74;100.00;100850.94;5318431;27;20024;-67
2023/04/28 07:20:48;;;;;;;27.88;18.58;;;;;;;10.79;100.00;100854.91;5317666;27;20030;-68
2023/04/28 07:23:19;;;;;;;22.75;17.73;;;;;;;10.86;100.00;100855.31;5314229;27;20063;-67
2023/04/28 07:25:50;;;;;;;23.10;17.67;;;;;;;10.89;100.00;100859.56;5309729;27;20042;-67
2023/04/28 07:28:22;;;;;;;20.95;15.82;;;;;;;10.90;100.00;100855.94;5312318;27;20031;-67
2023/04/28 07:30:53;;;;;;;22.73;17.02;;;;;;;10.92;100.00;100849.50;5315525;27;20539;-67
2023/04/28 07:33:25;;;;;;;20.75;16.60;;;;;;;10.99;100.00;100864.06;5317425;27;20579;-67
2023/04/28 07:35:56;;;;;;;23.23;16.40;;;;;;;11.10;100.00;100865.03;5315117;27;20034;-67
2023/04/28 07:38:28;;;;;;;20.90;15.93;;;;;;;11.11;100.00;100869.41;5313838;27;20434;-67
2023/04/28 07:40:59;;;;;;;18.83;15.20;;;;;;;11.16;100.00;100875.22;5316745;27;20993;-67
2023/04/28 07:43:30;;;;;;;19.30;15.77;;;;;;;11.26;100.00;100873.56;5299536;27;20467;-67
2023/04/28 07:46:02;;;;;;;18.42;15.07;;;;;;;11.25;100.00;100873.66;5301675;27;20031;-67
2023/04/28 07:48:34;;;;;;;20.20;16.65;;;;;;;11.27;100.00;100875.22;5297264;27;20063;-67
2023/04/28 07:51:05;;;;;;;20.42;16.30;;;;;;;11.30;100.00;100877.69;5300350;28;20496;-68
2023/04/28 07:53:37;;;;;;;18.88;16.27;;;;;;;11.30;100.00;100877.69;5301223;28;20114;-67
2023/04/28 07:56:08;;;;;;;21.33;16.88;;;;;;;11.36;100.00;100873.66;5302370;27;20027;-68
2023/04/28 07:58:40;;;;;;;22.08;17.13;;;;;;;11.40;100.00;100871.59;5311680;27;20114;-68
2023/04/28 08:01:11;;;;;;;20.98;16.88;;;;;;;11.44;100.00;100876.56;5316415;27;20515;-68
2023/04/28 08:03:43;;;;;;;24.25;18.55;;;;;;;11.42;100.00;100872.34;5280069;27;20044;-68
2023/04/28 08:06:14;;;;;;;23.90;18.42;;;;;;;11.46;100.00;100874.63;5267769;28;20463;-68
2023/04/28 08:08:46;;;;;;;23.50;18.17;;;;;;;11.51;100.00;100877.78;5267791;28;21773;-68
2023/04/28 08:11:17;;;;;;;23.83;19.58;;;;;;;11.54;100.00;100877.56;5270680;28;20481;-68
2023/04/28 08:13:48;;;;;;;22.55;18.67;;;;;;;11.57;100.00;100876.44;5268052;28;20039;-66
2023/04/28 08:16:21;;;;;;;22.35;19.80;;;;;;;11.58;100.00;100872.78;5270397;28;20803;-68
2023/04/28 08:18:52;;;;;;;24.92;19.92;;;;;;;11.57;100.00;100873.78;5265408;28;20445;-68
2023/04/28 08:21:24;;;;;;;26.58;19.63;;;;;;;11.62;100.00;100873.41;5271011;28;20066;-68
2023/04/28 08:23:55;;;;;;;24.50;19.88;;;;;;;11.67;100.00;100871.22;5267036;28;20573;-68
2023/04/28 08:26:26;;;;;;;23.30;19.85;;;;;;;11.69;100.00;100879.97;5264708;28;20124;-68
2023/04/28 08:28:58;;;;;;;26.33;21.08;;;;;;;11.74;100.00;100875.09;5269358;28;20132;-68
2023/04/28 08:31:29;;;;;;;26.05;21.02;;;;;;;11.74;100.00;100875.94;5269319;28;20082;-68
2023/04/28 08:34:01;;;;;;;24.73;20.35;;;;;;;11.82;100.00;100874.47;5273373;28;20033;-68
2023/04/28 08:36:33;;;;;;;25.67;21.70;;;;;;;11.88;100.00;100879.31;5268147;28;20423;-68
2023/04/28 08:39:07;;;;;;;25.38;21.40;;;;;;;11.91;100.00;100874.59;5271276;28;20075;-68
2023/04/28 08:41:39;;;;;;;29.98;22.20;;;;;;;12.03;100.00;100874.56;5270607;28;20028;-68
2023/04/28 08:44:11;;;;;;;26.23;21.67;;;;;;;12.07;100.00;100873.34;5271239;28;20544;-68
2023/04/28 08:46:43;;;;;;;24.73;21.10;;;;;;;12.18;100.00;100873.31;5265595;28;20476;-68
2023/04/28 08:49:17;;;;;;;27.50;20.67;;;;;;;12.21;100.00;100877.53;5268441;28;20471;-66
2023/04/28 08:51:58;;;;;;;25.23;20.17;;;;;;;12.23;100.00;100879.09;5264322;28;20036;-68
2023/04/28 08:54:36;;;;;;;22.40;19.15;;;;;;;12.29;100.00;100878.63;5272354;28;20036;-68
2023/04/28 08:57:09;;;;;;;25.33;19.98;;;;;;;12.35;100.00;100886.13;5272416;28;20378;-68
2023/04/28 08:59:40;;;;;;;23.10;19.95;;;;;;;12.38;100.00;100887.69;5270433;28;20029;-68
2023/04/28 09:02:12;;;;;;;27.08;20.27;;;;;;;12.42;100.00;100888.28;5272234;28;20035;-66
2023/04/28 09:04:43;;;;;;;21.45;18.30;;;;;;;12.42;100.00;100888.28;5273460;28;20163;-68
2023/04/28 09:07:15;;;;;;;21.70;18.92;;;;;;;12.48;100.00;100882.41;5275639;28;20052;-68
2023/04/28 09:09:46;;;;;;;25.35;19.00;;;;;;;12.51;100.00;100885.69;5273765;28;20036;-68
2023/04/28 09:12:17;;;;;;;22.50;18.65;;;;;;;12.53;100.00;100882.88;5272783;28;20036;-68
2023/04/28 09:14:57;;;;;;;22.92;18.83;;;;;;;12.66;100.00;100888.06;5274231;28;20024;-68
2023/04/28 09:17:28;;;;;;;22.95;19.55;;;;;;;12.72;100.00;100883.03;5273859;28;20027;-68
2023/04/28 09:20:00;;;;;;;24.52;19.55;;;;;;;12.76;100.00;100886.28;5276304;28;20040;-69
2023/04/28 09:22:32;;;;;;;23.42;20.08;;;;;;;12.82;100.00;100880.41;5276567;28;20554;-68
2023/04/28 09:25:10;;;;;;;26.10;19.80;;;;;;;12.86;100.00;100876.47;5271162;28;20494;-68
2023/04/28 09:27:41;;;;;;;25.15;19.65;;;;;;;12.90;100.00;100882.44;5265831;28;21523;-68
2023/04/28 09:30:13;;;;;;;25.92;19.95;;;;;;;12.87;100.00;100872.84;5275406;28;20039;-68
2023/04/28 09:32:44;;;;;;;24.20;19.92;;;;;;;12.98;100.00;100874.56;5268392;28;20761;-68
2023/04/28 09:35:38;;;;;;;24.02;19.42;;;;;;;13.04;100.00;100878.56;5266403;28;20025;-67
2023/04/28 09:38:09;;;;;;;25.52;20.02;;;;;;;13.04;100.00;100887.47;5270953;28;20135;-68
2023/04/28 09:40:54;;;;;;;24.15;19.70;;;;;;;13.06;100.00;100887.31;5273905;28;20028;-67
2023/04/28 09:43:26;;;;;;;27.20;21.25;;;;;;;13.06;100.00;100885.50;5273619;28;20241;-68
2023/04/28 09:45:59;;;;;;;26.58;21.17;;;;;;;13.03;100.00;100885.75;5265306;28;20442;-68
2023/04/28 09:48:36;;;;;;;28.27;21.85;;;;;;;13.02;100.00;100886.75;5261921;28;20028;-68
2023/04/28 09:51:08;;;;;;;25.70;21.27;;;;;;;13.01;100.00;100895.75;5275291;28;20028;-68
2023/04/28 09:53:39;;;;;;;27.52;22.35;;;;;;;12.99;100.00;100891.50;5269447;28;20390;-68
2023/04/28 09:56:11;;;;;;;30.15;23.17;;;;;;;12.97;100.00;100888.97;5275769;28;20028;-68
2023/04/28 09:58:44;;;;;;;31.88;23.75;;;;;;;12.95;100.00;100893.59;5274301;28;20024;-68
2023/04/28 10:01:16;;;;;;;28.52;24.67;;;;;;;12.99;100.00;100884.31;5270926;28;20510;-68
2023/04/28 10:03:49;;;;;;;39.35;30.42;;;;;;;12.96;100.00;100889.94;5303436;27;20047;-68
2023/04/28 10:06:21;;;;;;;40.78;30.85;;;;;;;12.97;100.00;100890.81;5313504;27;20115;-68
2023/04/28 10:08:52;;;;;;;43.35;32.00;;;;;;;13.00;100.00;100887.84;5316544;27;20036;-67
2023/04/28 10:11:24;;;;;;;52.42;37.13;;;;;;;13.00;100.00;100891.38;5319248;27;20051;-68
2023/04/28 10:13:55;;;;;;;53.47;36.25;;;;;;;13.06;100.00;100895.34;5316811;27;20031;-68
2023/04/28 10:16:31;;;;;;;52.75;37.60;;;;;;;13.09;100.00;100893.25;5317566;27;20114;-68
2023/04/28 10:19:04;;;;;;;52.72;38.88;;;;;;;13.21;100.00;100893.16;5316970;27;20032;-68
2023/04/28 10:21:43;;;;;;;51.55;38.17;;;;;;;13.21;100.00;100890.50;5317057;28;20035;-68
2023/04/28 10:24:20;;;;;;;50.85;37.50;;;;;;;13.25;100.00;100886.56;5310963;27;20028;-68
2023/04/28 10:27:04;;;;;;;50.70;37.33;;;;;;;13.29;100.00;100882.66;5317246;27;20108;-66
2023/04/28 10:29:36;;;;;;;46.35;36.47;;;;;;;13.32;100.00;100885.06;5314314;27;20039;-66
2023/04/28 10:32:18;;;;;;;46.97;34.85;;;;;;;13.31;100.00;100880.72;5316786;27;20473;-68
2023/04/28 10:34:50;;;;;;;46.25;34.92;;;;;;;13.33;100.00;100890.31;5319263;27;20030;-68
2023/04/28 10:38:00;;;;;;;46.78;35.25;;;;;;;13.39;100.00;100882.72;5313751;27;20389;-68
2023/04/28 10:40:35;;;;;;;43.53;34.88;;;;;;;13.42;100.00;100875.22;5312635;27;20477;-68
2023/04/28 10:43:08;;;;;;;43.03;33.38;;;;;;;13.47;100.00;100877.53;5310354;27;20118;-68
2023/04/28 10:45:51;;;;;;;42.55;32.78;;;;;;;13.53;100.00;100880.50;5315373;28;20120;-67
2023/04/28 10:48:29;;;;;;;42.15;33.35;;;;;;;13.62;100.00;100878.00;5318232;28;20546;-68
2023/04/28 10:51:04;;;;;;;43.33;32.65;;;;;;;13.67;100.00;100871.25;5313284;27;20498;-68
2023/04/28 10:53:42;;;;;;;39.97;32.58;;;;;;;13.78;100.00;100872.97;5316800;27;20501;-68
2023/04/28 10:56:20;;;;;;;37.72;31.25;;;;;;;13.87;100.00;100871.28;5320651;27;20031;-68
2023/04/28 10:58:55;;;;;;;34.60;29.95;;;;;;;13.95;100.00;100875.97;5310397;27;20024;-68
2023/04/28 11:01:29;;;;;;;33.33;28.92;;;;;;;14.04;100.00;100875.13;5315578;27;20032;-67
2023/04/28 11:04:14;;;;;;;31.77;28.38;;;;;;;14.11;100.00;100868.19;5279593;28;20048;-67
2023/04/28 11:07:06;;;;;;;29.73;26.58;;;;;;;14.19;100.00;100856.78;5271771;28;20095;-68
2023/04/28 11:09:38;;;;;;;29.38;26.15;;;;;;;14.26;100.00;100856.06;5272852;28;20032;-68
2023/04/28 11:12:09;;;;;;;28.48;25.08;;;;;;;14.27;100.00;100844.34;5275787;28;20070;-67
2023/04/28 11:14:41;;;;;;;28.77;24.80;;;;;;;14.35;100.00;100859.75;5271401;28;20103;-68
2023/04/28 11:17:15;;;;;;;26.90;24.10;;;;;;;14.38;100.00;100853.25;5273895;28;20074;-66
2023/04/28 11:19:50;;;;;;;24.67;22.08;;;;;;;14.40;100.00;100845.91;5275067;28;20111;-67
2023/04/28 11:22:22;;;;;;;25.10;22.50;;;;;;;14.38;100.00;100848.75;5268218;28;20064;-67
2023/04/28 11:24:59;;;;;;;25.17;22.52;;;;;;;14.45;100.00;100849.00;5267309;28;20017;-67
2023/04/28 11:27:32;;;;;;;23.77;21.33;;;;;;;14.46;100.00;100848.03;5270166;28;20540;-67
2023/04/28 11:30:18;;;;;;;24.30;21.90;;;;;;;14.50;100.00;100852.13;5270746;28;20406;-67